Edith Foss — WYQ8798 — position and weather

sailwx.info

Track history (hours):
 
Tides and Currents Weather Stations Pressure Air Temp Water Temp Dewpoint Dewpoint Depression Visibility Wind Speed Wind Dir Waves Ship Positions

Edith Foss

Owner: FOSS MARITIME COMPANY, SEATTLE, WA. More information available from US FCC via Universal Licensing System and Coast Guard Vessel Documentation Center.

Last reported at 2018-Feb-14 21:33 UTC. Time now 2018-Feb-19 11:51 UTC.
Position N 33°46' W 118°13'.

Length 24 m; draft 4 m.

Type: Tug. MMSI: 337619242.

Date/timePositionNaut miles runAvg speedWind from/ knotsBaromVisibWave heightAir tempDewpointWater temp
2018-Feb-14 21:33N 33°46' W 118°13'0 0.0
2018-Feb-14 21:30N 33°46' W 118°13'1 1.1
2018-Feb-14 21:00N 33°46' W 118°13'3 5.0
2018-Feb-14 20:29N 33°43' W 118°14'2 4.4
2018-Feb-14 20:00N 33°42' W 118°15'3 0.1
2018-Feb-13 17:11N 33°41' W 118°19'1 7.2
2018-Feb-13 17:00N 33°41' W 118°18'3 5.9
2018-Feb-13 16:31N 33°43' W 118°15'3 5.9
2018-Feb-13 16:00N 33°45' W 118°13'1 1.5
2018-Feb-13 15:25N 33°46' W 118°13'0 0.2
2018-Feb-13 14:58N 33°46' W 118°13'0 0.0
2018-Feb-13 14:05N 33°46' W 118°13'0 0.0
2018-Feb-13 13:59N 33°46' W 118°13'0 0.0
2018-Feb-13 13:26N 33°46' W 118°13'0 0.0
2018-Feb-13 12:56N 33°46' W 118°13'0 0.0
2018-Feb-13 12:29N 33°46' W 118°13'0 0.0
2018-Feb-13 11:59N 33°46' W 118°13'0 0.0
2018-Feb-13 11:11N 33°46' W 118°13'0 0.0
2018-Feb-13 10:50N 33°46' W 118°13'0 0.0
2018-Feb-13 01:50N 33°46' W 118°13'0 0.0
2018-Feb-13 01:29N 33°46' W 118°13'0 0.0
2018-Feb-13 00:59N 33°46' W 118°13'0 0.0
2018-Feb-13 00:29N 33°46' W 118°13'0 0.0
2018-Feb-12 23:59N 33°46' W 118°13'0 0.0
2018-Feb-12 23:29N 33°46' W 118°13'0 0.0
2018-Feb-12 22:59N 33°46' W 118°13'0 0.0
2018-Feb-12 22:23N 33°46' W 118°13'0 0.0
2018-Feb-12 21:59N 33°46' W 118°13'0 0.0
2018-Feb-12 21:29N 33°46' W 118°13'0 0.0
2018-Feb-12 20:59N 33°46' W 118°13'0 0.0
2018-Feb-12 20:29N 33°46' W 118°13'0 0.0
2018-Feb-12 19:59N 33°46' W 118°13'0 0.0
2018-Feb-12 19:26N 33°46' W 118°13'0 0.0
2018-Feb-12 18:59N 33°46' W 118°13'0 0.0
2018-Feb-12 18:29N 33°46' W 118°13'0 0.0
2018-Feb-12 17:59N 33°46' W 118°13'0 0.0
2018-Feb-12 17:29N 33°46' W 118°13'0 0.0
2018-Feb-12 16:59N 33°46' W 118°13'0 0.0
2018-Feb-12 16:29N 33°46' W 118°13'0 0.0
2018-Feb-12 15:59N 33°46' W 118°13'0 0.0
2018-Feb-12 15:17N 33°46' W 118°13'0 0.0
2018-Feb-12 14:59N 33°46' W 118°13'0 0.0
2018-Feb-12 13:23N 33°46' W 118°13'0 0.0
2018-Feb-12 11:47N 33°46' W 118°13'0 0.0
2018-Feb-12 11:20N 33°46' W 118°13'0 0.0
2018-Feb-12 10:59N 33°46' W 118°13'0 0.0
2018-Feb-12 10:29N 33°46' W 118°13'0 0.0
2018-Feb-12 09:59N 33°46' W 118°13'0 0.0
2018-Feb-12 09:29N 33°46' W 118°13'0 0.0
2018-Feb-12 08:38N 33°46' W 118°13'0 0.0
2018-Feb-12 04:38N 33°46' W 118°13'0 0.0
2018-Feb-12 04:14N 33°46' W 118°13'0 0.0
2018-Feb-12 03:59N 33°46' W 118°13'0 0.0
2018-Feb-12 03:23N 33°46' W 118°13'0 0.0
2018-Feb-12 02:53N 33°46' W 118°13'0 0.0
2018-Feb-12 01:44N 33°46' W 118°13'0 0.0
2018-Feb-12 01:29N 33°46' W 118°13'0 0.0
2018-Feb-12 00:59N 33°46' W 118°13'0 0.0
2018-Feb-12 00:29N 33°46' W 118°13'0 0.0
2018-Feb-11 23:59N 33°46' W 118°13'0 0.0
2018-Feb-11 23:29N 33°46' W 118°13'0 0.0
2018-Feb-11 22:59N 33°46' W 118°13'0 0.0
2018-Feb-11 22:29N 33°46' W 118°13'0 0.0
2018-Feb-11 21:59N 33°46' W 118°13'0 0.0
2018-Feb-11 21:29N 33°46' W 118°13'0 0.0
2018-Feb-11 20:59N 33°46' W 118°13'0 0.0
2018-Feb-11 20:26N 33°46' W 118°13'0 0.0
2018-Feb-11 19:59N 33°46' W 118°13'0 0.0
2018-Feb-11 19:29N 33°46' W 118°13'0 0.0
2018-Feb-11 18:59N 33°46' W 118°13'0 0.0
2018-Feb-11 18:29N 33°46' W 118°13'0 0.0
2018-Feb-11 17:56N 33°46' W 118°13'0 0.0
2018-Feb-11 17:29N 33°46' W 118°13'0 0.0
2018-Feb-11 16:59N 33°46' W 118°13'0 0.0
2018-Feb-11 16:29N 33°46' W 118°13'0 0.0
2018-Feb-11 15:53N 33°46' W 118°13'0 0.0
2018-Feb-11 15:29N 33°46' W 118°13'0 0.0
2018-Feb-11 14:59N 33°46' W 118°13'0 0.0
2018-Feb-11 11:56N 33°46' W 118°13'0 0.0
2018-Feb-11 03:08N 33°46' W 118°13'0 0.0
2018-Feb-11 02:59N 33°46' W 118°13'0 0.0
2018-Feb-11 02:29N 33°46' W 118°13'0 0.0
2018-Feb-11 01:53N 33°46' W 118°13'0 0.1
2018-Feb-11 01:29N 33°46' W 118°13'0 0.1
2018-Feb-11 00:59N 33°46' W 118°13'0 0.0
2018-Feb-11 00:26N 33°46' W 118°13'0 0.0
2018-Feb-10 23:58N 33°46' W 118°13'0 0.0
2018-Feb-10 23:29N 33°46' W 118°13'0 0.0
2018-Feb-10 22:53N 33°46' W 118°13'0 0.0
2018-Feb-10 22:29N 33°46' W 118°13'0 0.0
2018-Feb-10 21:58N 33°46' W 118°13'0 0.0
2018-Feb-10 21:29N 33°46' W 118°13'0 0.0
2018-Feb-10 20:59N 33°46' W 118°13'0 0.0
2018-Feb-10 20:29N 33°46' W 118°13'0 0.0
2018-Feb-10 19:59N 33°46' W 118°13'0 0.0
2018-Feb-10 19:29N 33°46' W 118°13'0 0.0
2018-Feb-10 18:59N 33°46' W 118°13'0 0.0
2018-Feb-10 18:29N 33°46' W 118°13'0 0.0
2018-Feb-10 17:59N 33°46' W 118°13'0 0.0
2018-Feb-10 17:26N 33°46' W 118°13'0 0.0
2018-Feb-10 16:59N 33°46' W 118°13'0 0.0
2018-Feb-10 12:54N 33°46' W 118°13'0 0.0
2018-Feb-10 12:29N 33°46' W 118°13'0 0.0
2018-Feb-10 11:53N 33°46' W 118°13'0 0.0
2018-Feb-10 11:05N 33°46' W 118°13'0 0.0
2018-Feb-10 04:14N 33°46' W 118°13'0 0.0
2018-Feb-10 02:56N 33°46' W 118°13'0 0.0
2018-Feb-10 01:41N 33°46' W 118°13'0 0.0
2018-Feb-10 01:29N 33°46' W 118°13'0 0.0
2018-Feb-10 00:59N 33°46' W 118°13'0 0.0
2018-Feb-10 00:29N 33°46' W 118°13'0 0.0
2018-Feb-09 23:56N 33°46' W 118°13'0 0.0
2018-Feb-09 23:29N 33°46' W 118°13'0 0.0
2018-Feb-09 22:59N 33°46' W 118°13'0 0.0
2018-Feb-09 22:44N 33°46' W 118°13'0 0.0
2018-Feb-08 01:29N 33°46' W 118°13'0 0.0
2018-Feb-08 00:59N 33°46' W 118°13'0 0.0
2018-Feb-08 00:29N 33°46' W 118°13'0 0.0
2018-Feb-07 23:59N 33°46' W 118°13'0 0.0
2018-Feb-07 23:29N 33°46' W 118°13'0 0.0
2018-Feb-07 22:59N 33°46' W 118°13'0 0.0
2018-Feb-07 22:26N 33°46' W 118°13'0 0.0
2018-Feb-07 21:59N 33°46' W 118°13'0 0.0
2018-Feb-07 21:29N 33°46' W 118°13'0 0.0
2018-Feb-07 09:05N 33°46' W 118°13'0 0.0
2018-Feb-07 08:59N 33°46' W 118°13'0 0.0
2018-Feb-07 08:29N 33°46' W 118°13'0 0.0
2018-Feb-07 07:59N 33°46' W 118°13'0 0.0
2018-Feb-07 07:29N 33°46' W 118°13'0 0.0
2018-Feb-07 06:56N 33°46' W 118°13'0 0.0
2018-Feb-07 06:29N 33°46' W 118°13'0 0.0
2018-Feb-07 05:53N 33°46' W 118°13'0 0.0
2018-Feb-07 05:23N 33°46' W 118°13'0 0.0
2018-Feb-07 04:59N 33°46' W 118°13'0 0.0
2018-Feb-07 03:56N 33°46' W 118°13'0 0.0
2018-Feb-07 03:26N 33°46' W 118°13'0 0.0
2018-Feb-07 02:59N 33°46' W 118°13'0 0.0
2018-Feb-07 02:29N 33°46' W 118°13'0 0.0
2018-Feb-07 01:50N 33°46' W 118°13'0 0.0
2018-Feb-07 01:20N 33°46' W 118°13'0 0.0
2018-Feb-07 00:59N 33°46' W 118°13'0 0.0
2018-Feb-07 00:29N 33°46' W 118°13'0 0.0
2018-Feb-06 23:59N 33°46' W 118°13'0 0.0
2018-Feb-06 23:29N 33°46' W 118°13'0 0.0
2018-Feb-06 22:59N 33°46' W 118°13'0 0.0
2018-Feb-06 22:29N 33°46' W 118°13'0 0.0
2018-Feb-06 21:59N 33°46' W 118°13'0 0.0
2018-Feb-06 21:29N 33°46' W 118°13'0 0.0
2018-Feb-06 20:59N 33°46' W 118°13'0 0.0
2018-Feb-06 20:29N 33°46' W 118°13'0 0.0
2018-Feb-06 19:59N 33°46' W 118°13'0 0.0
2018-Feb-06 19:29N 33°46' W 118°13'0 0.0
2018-Feb-06 18:56N 33°46' W 118°13'0 0.0
2018-Feb-06 18:29N 33°46' W 118°13'0 0.0
2018-Feb-06 17:59N 33°46' W 118°13'0 0.0
2018-Feb-06 17:29N 33°46' W 118°13'0 0.0
2018-Feb-06 16:59N 33°46' W 118°13'0 0.0
2018-Feb-06 16:26N 33°46' W 118°13'0 0.0
2018-Feb-06 15:59N 33°46' W 118°13'0 0.0
2018-Feb-06 15:26N 33°46' W 118°13'0 0.0
2018-Feb-06 14:59N 33°46' W 118°13'0 0.0
2018-Feb-06 14:29N 33°46' W 118°13'0 0.0
2018-Feb-06 13:53N 33°46' W 118°13'0 0.0
2018-Feb-06 12:29N 33°46' W 118°13'0 0.0
2018-Feb-06 02:32N 33°46' W 118°13'0 0.0
2018-Feb-06 02:26N 33°46' W 118°13'0 0.0
2018-Feb-06 01:53N 33°46' W 118°13'0 0.0
2018-Feb-06 01:26N 33°46' W 118°13'0 0.1
2018-Feb-06 00:59N 33°46' W 118°13'0 0.1
2018-Feb-06 00:29N 33°46' W 118°13'0 0.0
2018-Feb-05 23:56N 33°46' W 118°13'0 0.0
2018-Feb-05 23:29N 33°46' W 118°13'0 0.0
2018-Feb-05 22:59N 33°46' W 118°13'0 0.0
2018-Feb-05 22:26N 33°46' W 118°13'0 0.0
2018-Feb-05 21:59N 33°46' W 118°13'0 0.0
2018-Feb-05 21:29N 33°46' W 118°13'0 0.0
2018-Feb-05 20:59N 33°46' W 118°13'0 0.0
2018-Feb-05 20:26N 33°46' W 118°13'0 0.0
2018-Feb-05 19:59N 33°46' W 118°13'0 0.0
2018-Feb-05 19:26N 33°46' W 118°13'0 0.0
2018-Feb-05 18:59N 33°46' W 118°13'0 0.0
2018-Feb-05 18:29N 33°46' W 118°13'0 0.0
2018-Feb-05 17:59N 33°46' W 118°13'0 0.0
2018-Feb-05 17:29N 33°46' W 118°13'0 0.0
2018-Feb-05 16:59N 33°46' W 118°13'0 0.0
2018-Feb-05 16:29N 33°46' W 118°13'0 0.0
2018-Feb-05 15:59N 33°46' W 118°13'0 0.0
2018-Feb-05 15:29N 33°46' W 118°13'0 0.0
2018-Feb-05 14:59N 33°46' W 118°13'0 0.0
2018-Feb-05 14:26N 33°46' W 118°13'0 0.0
2018-Feb-05 13:56N 33°46' W 118°13'0 0.0
2018-Feb-05 13:26N 33°46' W 118°13'0 0.0
2018-Feb-05 12:59N 33°46' W 118°13'0 0.0
2018-Feb-05 12:29N 33°46' W 118°13'0 0.0
2018-Feb-05 11:59N 33°46' W 118°13'0 0.0
2018-Feb-05 10:50N 33°46' W 118°13'0 0.0
2018-Feb-05 10:23N 33°46' W 118°13'0 0.0
2018-Feb-05 09:56N 33°46' W 118°13'0 0.0
2018-Feb-05 09:23N 33°46' W 118°13'0 0.0
2018-Feb-05 08:50N 33°46' W 118°13'0 0.0
2018-Feb-05 08:26N 33°46' W 118°13'0 0.0
2018-Feb-05 07:53N 33°46' W 118°13'0 0.0
2018-Feb-05 07:29N 33°46' W 118°13'0 0.0
2018-Feb-05 06:59N 33°46' W 118°13'0 0.0
2018-Feb-05 06:23N 33°46' W 118°13'0 0.0
2018-Feb-05 05:29N 33°46' W 118°13'0 0.0
2018-Feb-05 04:56N 33°46' W 118°13'0 0.0
2018-Feb-05 03:32N 33°46' W 118°13'0 0.3
2018-Feb-05 03:23N 33°46' W 118°13'0 0.0
2018-Feb-05 02:56N 33°46' W 118°13'0 0.0
2018-Feb-05 02:29N 33°46' W 118°13'0 0.0
2018-Feb-05 01:59N 33°46' W 118°13'0 0.0
2018-Feb-05 01:29N 33°46' W 118°13'0 0.0
2018-Feb-05 00:59N 33°46' W 118°13'0 0.0
2018-Feb-05 00:26N 33°46' W 118°13'0 0.0
2018-Feb-04 23:59N 33°46' W 118°13'0 0.0
2018-Feb-04 23:26N 33°46' W 118°13'0 0.0
2018-Feb-04 22:56N 33°46' W 118°13'0 0.0
2018-Feb-04 22:29N 33°46' W 118°13'0 0.0
2018-Feb-04 21:59N 33°46' W 118°13'  
Track history (hours):
 
Tides and Currents Weather Stations Pressure Air Temp Water Temp Dewpoint Dewpoint Depression Visibility Wind Speed Wind Dir Waves Ship Positions

Edith Foss

Owner: FOSS MARITIME COMPANY, SEATTLE, WA. More information available from US FCC via Universal Licensing System and Coast Guard Vessel Documentation Center.

Last reported at 2018-Feb-14 21:33 UTC. Time now 2018-Feb-19 11:51 UTC.
Position N 33°46' W 118°13'.

Length 24 m; draft 4 m.

Type: Tug. MMSI: 337619242.

Date/timePositionNaut miles runAvg speedWind from/ knotsBaromVisibWave heightAir tempDewpointWater temp
2018-Feb-14 21:33N 33°46' W 118°13'0 0.0
2018-Feb-14 21:30N 33°46' W 118°13'1 1.1
2018-Feb-14 21:00N 33°46' W 118°13'3 5.0
2018-Feb-14 20:29N 33°43' W 118°14'2 4.4
2018-Feb-14 20:00N 33°42' W 118°15'3 0.1
2018-Feb-13 17:11N 33°41' W 118°19'1 7.2
2018-Feb-13 17:00N 33°41' W 118°18'3 5.9
2018-Feb-13 16:31N 33°43' W 118°15'3 5.9
2018-Feb-13 16:00N 33°45' W 118°13'1 1.5
2018-Feb-13 15:25N 33°46' W 118°13'0 0.2
2018-Feb-13 14:58N 33°46' W 118°13'0 0.0
2018-Feb-13 14:05N 33°46' W 118°13'0 0.0
2018-Feb-13 13:59N 33°46' W 118°13'0 0.0
2018-Feb-13 13:26N 33°46' W 118°13'0 0.0
2018-Feb-13 12:56N 33°46' W 118°13'0 0.0
2018-Feb-13 12:29N 33°46' W 118°13'0 0.0
2018-Feb-13 11:59N 33°46' W 118°13'0 0.0
2018-Feb-13 11:11N 33°46' W 118°13'0 0.0
2018-Feb-13 10:50N 33°46' W 118°13'0 0.0
2018-Feb-13 01:50N 33°46' W 118°13'0 0.0
2018-Feb-13 01:29N 33°46' W 118°13'0 0.0
2018-Feb-13 00:59N 33°46' W 118°13'0 0.0
2018-Feb-13 00:29N 33°46' W 118°13'0 0.0
2018-Feb-12 23:59N 33°46' W 118°13'0 0.0
2018-Feb-12 23:29N 33°46' W 118°13'0 0.0
2018-Feb-12 22:59N 33°46' W 118°13'0 0.0
2018-Feb-12 22:23N 33°46' W 118°13'0 0.0
2018-Feb-12 21:59N 33°46' W 118°13'0 0.0
2018-Feb-12 21:29N 33°46' W 118°13'0 0.0
2018-Feb-12 20:59N 33°46' W 118°13'0 0.0
2018-Feb-12 20:29N 33°46' W 118°13'0 0.0
2018-Feb-12 19:59N 33°46' W 118°13'0 0.0
2018-Feb-12 19:26N 33°46' W 118°13'0 0.0
2018-Feb-12 18:59N 33°46' W 118°13'0 0.0
2018-Feb-12 18:29N 33°46' W 118°13'0 0.0
2018-Feb-12 17:59N 33°46' W 118°13'0 0.0
2018-Feb-12 17:29N 33°46' W 118°13'0 0.0
2018-Feb-12 16:59N 33°46' W 118°13'0 0.0
2018-Feb-12 16:29N 33°46' W 118°13'0 0.0
2018-Feb-12 15:59N 33°46' W 118°13'0 0.0
2018-Feb-12 15:17N 33°46' W 118°13'0 0.0
2018-Feb-12 14:59N 33°46' W 118°13'0 0.0
2018-Feb-12 13:23N 33°46' W 118°13'0 0.0
2018-Feb-12 11:47N 33°46' W 118°13'0 0.0
2018-Feb-12 11:20N 33°46' W 118°13'0 0.0
2018-Feb-12 10:59N 33°46' W 118°13'0 0.0
2018-Feb-12 10:29N 33°46' W 118°13'0 0.0
2018-Feb-12 09:59N 33°46' W 118°13'0 0.0
2018-Feb-12 09:29N 33°46' W 118°13'0 0.0
2018-Feb-12 08:38N 33°46' W 118°13'0 0.0
2018-Feb-12 04:38N 33°46' W 118°13'0 0.0
2018-Feb-12 04:14N 33°46' W 118°13'0 0.0
2018-Feb-12 03:59N 33°46' W 118°13'0 0.0
2018-Feb-12 03:23N 33°46' W 118°13'0 0.0
2018-Feb-12 02:53N 33°46' W 118°13'0 0.0
2018-Feb-12 01:44N 33°46' W 118°13'0 0.0
2018-Feb-12 01:29N 33°46' W 118°13'0 0.0
2018-Feb-12 00:59N 33°46' W 118°13'0 0.0
2018-Feb-12 00:29N 33°46' W 118°13'0 0.0
2018-Feb-11 23:59N 33°46' W 118°13'0 0.0
2018-Feb-11 23:29N 33°46' W 118°13'0 0.0
2018-Feb-11 22:59N 33°46' W 118°13'0 0.0
2018-Feb-11 22:29N 33°46' W 118°13'0 0.0
2018-Feb-11 21:59N 33°46' W 118°13'0 0.0
2018-Feb-11 21:29N 33°46' W 118°13'0 0.0
2018-Feb-11 20:59N 33°46' W 118°13'0 0.0
2018-Feb-11 20:26N 33°46' W 118°13'0 0.0
2018-Feb-11 19:59N 33°46' W 118°13'0 0.0
2018-Feb-11 19:29N 33°46' W 118°13'0 0.0
2018-Feb-11 18:59N 33°46' W 118°13'0 0.0
2018-Feb-11 18:29N 33°46' W 118°13'0 0.0
2018-Feb-11 17:56N 33°46' W 118°13'0 0.0
2018-Feb-11 17:29N 33°46' W 118°13'0 0.0
2018-Feb-11 16:59N 33°46' W 118°13'0 0.0
2018-Feb-11 16:29N 33°46' W 118°13'0 0.0
2018-Feb-11 15:53N 33°46' W 118°13'0 0.0
2018-Feb-11 15:29N 33°46' W 118°13'0 0.0
2018-Feb-11 14:59N 33°46' W 118°13'0 0.0
2018-Feb-11 11:56N 33°46' W 118°13'0 0.0
2018-Feb-11 03:08N 33°46' W 118°13'0 0.0
2018-Feb-11 02:59N 33°46' W 118°13'0 0.0
2018-Feb-11 02:29N 33°46' W 118°13'0 0.0
2018-Feb-11 01:53N 33°46' W 118°13'0 0.1
2018-Feb-11 01:29N 33°46' W 118°13'0 0.1
2018-Feb-11 00:59N 33°46' W 118°13'0 0.0
2018-Feb-11 00:26N 33°46' W 118°13'0 0.0
2018-Feb-10 23:58N 33°46' W 118°13'0 0.0
2018-Feb-10 23:29N 33°46' W 118°13'0 0.0
2018-Feb-10 22:53N 33°46' W 118°13'0 0.0
2018-Feb-10 22:29N 33°46' W 118°13'0 0.0
2018-Feb-10 21:58N 33°46' W 118°13'0 0.0
2018-Feb-10 21:29N 33°46' W 118°13'0 0.0
2018-Feb-10 20:59N 33°46' W 118°13'0 0.0
2018-Feb-10 20:29N 33°46' W 118°13'0 0.0
2018-Feb-10 19:59N 33°46' W 118°13'0 0.0
2018-Feb-10 19:29N 33°46' W 118°13'0 0.0
2018-Feb-10 18:59N 33°46' W 118°13'0 0.0
2018-Feb-10 18:29N 33°46' W 118°13'0 0.0
2018-Feb-10 17:59N 33°46' W 118°13'0 0.0
2018-Feb-10 17:26N 33°46' W 118°13'0 0.0
2018-Feb-10 16:59N 33°46' W 118°13'0 0.0
2018-Feb-10 12:54N 33°46' W 118°13'0 0.0
2018-Feb-10 12:29N 33°46' W 118°13'0 0.0
2018-Feb-10 11:53N 33°46' W 118°13'0 0.0
2018-Feb-10 11:05N 33°46' W 118°13'0 0.0
2018-Feb-10 04:14N 33°46' W 118°13'0 0.0
2018-Feb-10 02:56N 33°46' W 118°13'0 0.0
2018-Feb-10 01:41N 33°46' W 118°13'0 0.0
2018-Feb-10 01:29N 33°46' W 118°13'0 0.0
2018-Feb-10 00:59N 33°46' W 118°13'0 0.0
2018-Feb-10 00:29N 33°46' W 118°13'0 0.0
2018-Feb-09 23:56N 33°46' W 118°13'0 0.0
2018-Feb-09 23:29N 33°46' W 118°13'0 0.0
2018-Feb-09 22:59N 33°46' W 118°13'0 0.0
2018-Feb-09 22:44N 33°46' W 118°13'0 0.0
2018-Feb-08 01:29N 33°46' W 118°13'0 0.0
2018-Feb-08 00:59N 33°46' W 118°13'0 0.0
2018-Feb-08 00:29N 33°46' W 118°13'0 0.0
2018-Feb-07 23:59N 33°46' W 118°13'0 0.0
2018-Feb-07 23:29N 33°46' W 118°13'0 0.0
2018-Feb-07 22:59N 33°46' W 118°13'0 0.0
2018-Feb-07 22:26N 33°46' W 118°13'0 0.0
2018-Feb-07 21:59N 33°46' W 118°13'0 0.0
2018-Feb-07 21:29N 33°46' W 118°13'0 0.0
2018-Feb-07 09:05N 33°46' W 118°13'0 0.0
2018-Feb-07 08:59N 33°46' W 118°13'0 0.0
2018-Feb-07 08:29N 33°46' W 118°13'0 0.0
2018-Feb-07 07:59N 33°46' W 118°13'0 0.0
2018-Feb-07 07:29N 33°46' W 118°13'0 0.0
2018-Feb-07 06:56N 33°46' W 118°13'0 0.0
2018-Feb-07 06:29N 33°46' W 118°13'0 0.0
2018-Feb-07 05:53N 33°46' W 118°13'0 0.0
2018-Feb-07 05:23N 33°46' W 118°13'0 0.0
2018-Feb-07 04:59N 33°46' W 118°13'0 0.0
2018-Feb-07 03:56N 33°46' W 118°13'0 0.0
2018-Feb-07 03:26N 33°46' W 118°13'0 0.0
2018-Feb-07 02:59N 33°46' W 118°13'0 0.0
2018-Feb-07 02:29N 33°46' W 118°13'0 0.0
2018-Feb-07 01:50N 33°46' W 118°13'0 0.0
2018-Feb-07 01:20N 33°46' W 118°13'0 0.0
2018-Feb-07 00:59N 33°46' W 118°13'0 0.0
2018-Feb-07 00:29N 33°46' W 118°13'0 0.0
2018-Feb-06 23:59N 33°46' W 118°13'0 0.0
2018-Feb-06 23:29N 33°46' W 118°13'0 0.0
2018-Feb-06 22:59N 33°46' W 118°13'0 0.0
2018-Feb-06 22:29N 33°46' W 118°13'0 0.0
2018-Feb-06 21:59N 33°46' W 118°13'0 0.0
2018-Feb-06 21:29N 33°46' W 118°13'0 0.0
2018-Feb-06 20:59N 33°46' W 118°13'0 0.0
2018-Feb-06 20:29N 33°46' W 118°13'0 0.0
2018-Feb-06 19:59N 33°46' W 118°13'0 0.0
2018-Feb-06 19:29N 33°46' W 118°13'0 0.0
2018-Feb-06 18:56N 33°46' W 118°13'0 0.0
2018-Feb-06 18:29N 33°46' W 118°13'0 0.0
2018-Feb-06 17:59N 33°46' W 118°13'0 0.0
2018-Feb-06 17:29N 33°46' W 118°13'0 0.0
2018-Feb-06 16:59N 33°46' W 118°13'0 0.0
2018-Feb-06 16:26N 33°46' W 118°13'0 0.0
2018-Feb-06 15:59N 33°46' W 118°13'0 0.0
2018-Feb-06 15:26N 33°46' W 118°13'0 0.0
2018-Feb-06 14:59N 33°46' W 118°13'0 0.0
2018-Feb-06 14:29N 33°46' W 118°13'0 0.0
2018-Feb-06 13:53N 33°46' W 118°13'0 0.0
2018-Feb-06 12:29N 33°46' W 118°13'0 0.0
2018-Feb-06 02:32N 33°46' W 118°13'0 0.0
2018-Feb-06 02:26N 33°46' W 118°13'0 0.0
2018-Feb-06 01:53N 33°46' W 118°13'0 0.0
2018-Feb-06 01:26N 33°46' W 118°13'0 0.1
2018-Feb-06 00:59N 33°46' W 118°13'0 0.1
2018-Feb-06 00:29N 33°46' W 118°13'0 0.0
2018-Feb-05 23:56N 33°46' W 118°13'0 0.0
2018-Feb-05 23:29N 33°46' W 118°13'0 0.0
2018-Feb-05 22:59N 33°46' W 118°13'0 0.0
2018-Feb-05 22:26N 33°46' W 118°13'0 0.0
2018-Feb-05 21:59N 33°46' W 118°13'0 0.0
2018-Feb-05 21:29N 33°46' W 118°13'0 0.0
2018-Feb-05 20:59N 33°46' W 118°13'0 0.0
2018-Feb-05 20:26N 33°46' W 118°13'0 0.0
2018-Feb-05 19:59N 33°46' W 118°13'0 0.0
2018-Feb-05 19:26N 33°46' W 118°13'0 0.0
2018-Feb-05 18:59N 33°46' W 118°13'0 0.0
2018-Feb-05 18:29N 33°46' W 118°13'0 0.0
2018-Feb-05 17:59N 33°46' W 118°13'0 0.0
2018-Feb-05 17:29N 33°46' W 118°13'0 0.0
2018-Feb-05 16:59N 33°46' W 118°13'0 0.0
2018-Feb-05 16:29N 33°46' W 118°13'0 0.0
2018-Feb-05 15:59N 33°46' W 118°13'0 0.0
2018-Feb-05 15:29N 33°46' W 118°13'0 0.0
2018-Feb-05 14:59N 33°46' W 118°13'0 0.0
2018-Feb-05 14:26N 33°46' W 118°13'0 0.0
2018-Feb-05 13:56N 33°46' W 118°13'0 0.0
2018-Feb-05 13:26N 33°46' W 118°13'0 0.0
2018-Feb-05 12:59N 33°46' W 118°13'0 0.0
2018-Feb-05 12:29N 33°46' W 118°13'0 0.0
2018-Feb-05 11:59N 33°46' W 118°13'0 0.0
2018-Feb-05 10:50N 33°46' W 118°13'0 0.0
2018-Feb-05 10:23N 33°46' W 118°13'0 0.0
2018-Feb-05 09:56N 33°46' W 118°13'0 0.0
2018-Feb-05 09:23N 33°46' W 118°13'0 0.0
2018-Feb-05 08:50N 33°46' W 118°13'0 0.0
2018-Feb-05 08:26N 33°46' W 118°13'0 0.0
2018-Feb-05 07:53N 33°46' W 118°13'0 0.0
2018-Feb-05 07:29N 33°46' W 118°13'0 0.0
2018-Feb-05 06:59N 33°46' W 118°13'0 0.0
2018-Feb-05 06:23N 33°46' W 118°13'0 0.0
2018-Feb-05 05:29N 33°46' W 118°13'0 0.0
2018-Feb-05 04:56N 33°46' W 118°13'0 0.0
2018-Feb-05 03:32N 33°46' W 118°13'0 0.3
2018-Feb-05 03:23N 33°46' W 118°13'0 0.0
2018-Feb-05 02:56N 33°46' W 118°13'0 0.0
2018-Feb-05 02:29N 33°46' W 118°13'0 0.0
2018-Feb-05 01:59N 33°46' W 118°13'0 0.0
2018-Feb-05 01:29N 33°46' W 118°13'0 0.0
2018-Feb-05 00:59N 33°46' W 118°13'0 0.0
2018-Feb-05 00:26N 33°46' W 118°13'0 0.0
2018-Feb-04 23:59N 33°46' W 118°13'0 0.0
2018-Feb-04 23:26N 33°46' W 118°13'0 0.0
2018-Feb-04 22:56N 33°46' W 118°13'0 0.0
2018-Feb-04 22:29N 33°46' W 118°13'0 0.0
2018-Feb-04 21:59N 33°46' W 118°13'  

Dump ship's entire track history